Oriskany, Virginia
Current Conditions -  °F | °C
As of 4:54 AM on Thursday 27 Nov 2014 (Local Time) from KROA Reporting Station
Overcast Overcast  
Wind Chill: 36°   Ceiling: 7500
Heat Index: 36°   Visibility: 7mi
Dew Point: 35°   Wind: 0mph
Humidity: 97%   Direction: NA
Pressure: 30"   Gusts: NA
Location:  37.62°N, 79.98°W
Report Text: KROA 270954Z 00000KT 7SM OVC075 02/02 A3000 RMK AO2 SLP165 T00220017
Loading
Personal Weather Stations






























Interactive Weather Map New forecast layout! Learn more

10-Day Weather Forecast

Advertisements
Track Severe Weather on mobile